createdAt,value
2022-12-27T00:00:35.892Z,102023.00
2022-12-27T00:03:02.641Z,102021.31
2022-12-27T00:05:29.319Z,102020.47
2022-12-27T00:07:56.304Z,102038.31
2022-12-27T00:10:22.984Z,102039.38
2022-12-27T00:12:49.607Z,102036.59
2022-12-27T00:15:16.230Z,102030.19
2022-12-27T00:17:42.896Z,102036.03
2022-12-27T00:20:11.726Z,102042.69
2022-12-27T00:22:38.735Z,102041.00
2022-12-27T00:25:05.587Z,102045.72
2022-12-27T00:27:32.178Z,102046.81
2022-12-27T00:29:58.885Z,102054.38
2022-12-27T00:32:25.448Z,102047.09
2022-12-27T00:34:52.037Z,102058.47
2022-12-27T00:37:18.722Z,102065.16
2022-12-27T00:39:45.303Z,102068.22
2022-12-27T00:42:12.045Z,102071.00
2022-12-27T00:44:38.687Z,102065.66
2022-12-27T00:47:05.330Z,102072.09
2022-12-27T00:49:31.961Z,102070.38
2022-12-27T00:51:58.578Z,102065.06
2022-12-27T00:54:25.223Z,102061.44
2022-12-27T00:56:51.863Z,102059.75
2022-12-27T00:59:18.531Z,102058.06
2022-12-27T01:01:45.459Z,102052.47
2022-12-27T01:04:15.933Z,102062.78
2022-12-27T01:06:42.615Z,102061.09
2022-12-27T01:09:09.438Z,102058.56
2022-12-27T01:11:36.086Z,102056.88
2022-12-27T01:14:04.182Z,102055.16
2022-12-27T01:16:31.543Z,102056.25
2022-12-27T01:18:58.743Z,102059.06
2022-12-27T01:21:26.099Z,102060.16
2022-12-27T01:23:52.737Z,102059.56
2022-12-27T01:26:20.695Z,102063.19
2022-12-27T01:28:47.938Z,102052.28
2022-12-27T01:31:17.080Z,102057.00
2022-12-27T01:33:43.934Z,102062.59
2022-12-27T01:36:12.128Z,102062.88
2022-12-27T01:38:39.108Z,102065.03
2022-12-27T01:41:25.705Z,102071.69
2022-12-27T01:43:52.306Z,102070.84
2022-12-27T01:46:19.239Z,102071.97
2022-12-27T01:48:46.289Z,102079.47
2022-12-27T01:51:13.055Z,102079.72
2022-12-27T01:53:42.493Z,102082.50
2022-12-27T01:56:18.324Z,102086.66
2022-12-27T01:58:52.165Z,102079.38
2022-12-27T02:01:27.180Z,102086.91
2022-12-27T02:04:02.386Z,102083.50
2022-12-27T02:06:30.131Z,102089.06
2022-12-27T02:09:09.534Z,102098.56
2022-12-27T02:11:52.389Z,102099.63
2022-12-27T02:14:26.202Z,102102.66
2022-12-27T02:16:55.342Z,102109.09
2022-12-27T02:19:30.210Z,102111.03
2022-12-27T02:22:08.156Z,102114.06
2022-12-27T02:24:34.794Z,102113.22
2022-12-27T02:27:07.245Z,102110.69
2022-12-27T02:29:52.326Z,102115.41
2022-12-27T02:32:37.560Z,102112.84
2022-12-27T02:35:23.641Z,102109.50
2022-12-27T02:38:10.587Z,102106.69
2022-12-27T02:41:02.001Z,102098.84
2022-12-27T02:43:47.618Z,102104.41
2022-12-27T02:46:35.748Z,102109.13
2022-12-27T02:49:20.777Z,102104.66
2022-12-27T02:52:08.965Z,102093.75
2022-12-27T02:54:35.961Z,102109.38
2022-12-27T02:57:09.002Z,102107.94
2022-12-27T03:00:17.746Z,102111.81
2022-12-27T03:03:21.560Z,102108.41
2022-12-27T03:06:25.509Z,102105.91
2022-12-27T03:09:10.686Z,102113.16
2022-12-27T03:12:12.392Z,102103.94
2022-12-27T03:15:01.505Z,102102.28
2022-12-27T03:17:37.349Z,102096.09
2022-12-27T03:20:33.304Z,102092.72
2022-12-27T03:23:20.236Z,102086.31
2022-12-27T03:25:48.784Z,102086.31
2022-12-27T03:28:39.374Z,102083.75
2022-12-27T03:31:28.950Z,102079.88
2022-12-27T03:34:04.759Z,102087.38
2022-12-27T03:36:52.088Z,102092.09
2022-12-27T03:39:24.612Z,102102.41
2022-12-27T03:42:12.248Z,102096.25
2022-12-27T03:44:39.499Z,102101.81
2022-12-27T03:47:21.152Z,102100.97
2022-12-27T03:49:50.522Z,102109.56
2022-12-27T03:52:25.427Z,102111.50
2022-12-27T03:54:52.903Z,102105.31
2022-12-27T03:57:24.248Z,102099.72
2022-12-27T03:59:50.966Z,102100.81
2022-12-27T04:02:17.930Z,102097.19
2022-12-27T04:04:44.892Z,102105.53
2022-12-27T04:07:14.571Z,102108.56
2022-12-27T04:09:59.651Z,102106.63
2022-12-27T04:12:45.188Z,102109.41
2022-12-27T04:15:30.360Z,102108.94
2022-12-27T04:18:15.314Z,102103.13
2022-12-27T04:21:00.486Z,102097.91
2022-12-27T04:23:45.683Z,102091.88
2022-12-27T04:26:30.856Z,102091.13
2022-12-27T04:29:15.965Z,102090.97
2022-12-27T04:32:00.933Z,102098.34
2022-12-27T04:34:42.480Z,102099.28
2022-12-27T04:37:10.583Z,102102.19
2022-12-27T04:39:37.254Z,102101.69
2022-12-27T04:42:22.479Z,102097.28
2022-12-27T04:45:14.829Z,102085.41
2022-12-27T04:48:00.755Z,102090.22
2022-12-27T04:50:51.417Z,102092.50
2022-12-27T04:53:40.448Z,102081.44
2022-12-27T04:56:07.283Z,102076.47
2022-12-27T04:58:34.020Z,102074.88
2022-12-27T05:01:20.654Z,102086.38
2022-12-27T05:03:48.393Z,102083.91
2022-12-27T05:06:15.453Z,102082.59
2022-12-27T05:09:00.827Z,102074.78
2022-12-27T05:11:46.009Z,102088.25
2022-12-27T05:14:14.129Z,102079.59
2022-12-27T05:16:41.807Z,102083.00
2022-12-27T05:19:09.705Z,102078.00
2022-12-27T05:21:37.207Z,102070.50
2022-12-27T05:24:22.676Z,102067.47
2022-12-27T05:26:49.653Z,102063.81
2022-12-27T05:29:16.290Z,102062.97
2022-12-27T05:31:42.962Z,102061.03
2022-12-27T05:34:09.675Z,102062.72
2022-12-27T05:36:36.382Z,102070.25
2022-12-27T05:39:03.009Z,102069.41
2022-12-27T05:41:29.666Z,102081.41
2022-12-27T05:43:59.646Z,102073.88
2022-12-27T05:46:30.107Z,102071.94
2022-12-27T05:48:56.818Z,102084.78
2022-12-27T05:51:23.469Z,102074.72
2022-12-27T05:53:50.081Z,102073.63
2022-12-27T05:56:17.469Z,102074.47
2022-12-27T05:58:44.244Z,102079.22
2022-12-27T06:01:12.030Z,102075.81
2022-12-27T06:03:38.832Z,102075.81
2022-12-27T06:06:07.869Z,102075.59
2022-12-27T06:08:34.872Z,102069.16
2022-12-27T06:11:09.408Z,102071.09
2022-12-27T06:13:37.045Z,102067.47
2022-12-27T06:16:04.727Z,102057.41
2022-12-27T06:18:32.443Z,102046.25
2022-12-27T06:21:06.589Z,102046.25
2022-12-27T06:23:34.046Z,102045.38
2022-12-27T06:26:04.514Z,102037.28
2022-12-27T06:28:31.100Z,102035.59
2022-12-27T06:30:58.825Z,102037.53
2022-12-27T06:33:25.557Z,102030.25
2022-12-27T06:35:52.197Z,102023.84
2022-12-27T06:38:18.887Z,102023.84
2022-12-27T06:40:45.477Z,102017.69
2022-12-27T06:43:12.150Z,102012.97
2022-12-27T06:45:39.389Z,102010.41
2022-12-27T06:48:06.208Z,102013.19
2022-12-27T06:50:34.533Z,102019.03
2022-12-27T06:53:01.142Z,102010.94
2022-12-27T06:55:27.790Z,102011.19
2022-12-27T06:57:54.401Z,102005.59
2022-12-27T07:00:21.199Z,102001.97
2022-12-27T07:02:48.291Z,102000.25
2022-12-27T07:05:15.096Z,102002.22
2022-12-27T07:07:41.720Z,101998.94
2022-12-27T07:10:08.585Z,101993.34
2022-12-27T07:12:36.937Z,101993.06
2022-12-27T07:15:05.255Z,101989.81
2022-12-27T07:17:31.987Z,101985.41
2022-12-27T07:19:58.622Z,101987.44
2022-12-27T07:22:25.338Z,101977.44
2022-12-27T07:24:51.954Z,101997.06
2022-12-27T07:27:18.619Z,101989.00
2022-12-27T07:29:45.912Z,101980.13
2022-12-27T07:32:12.976Z,101986.94
2022-12-27T07:34:39.583Z,101989.19
2022-12-27T07:37:06.446Z,101990.38
2022-12-27T07:39:33.052Z,101993.47
2022-12-27T07:42:03.354Z,101986.56
2022-12-27T07:44:34.576Z,101993.31
2022-12-27T07:47:01.171Z,102000.31
2022-12-27T07:49:28.529Z,102000.06
2022-12-27T07:51:55.117Z,102004.03
2022-12-27T07:54:21.867Z,102007.41
2022-12-27T07:56:48.478Z,102008.00
2022-12-27T07:59:15.115Z,102016.97
2022-12-27T08:02:00.570Z,102021.19
2022-12-27T08:04:27.314Z,102018.97
2022-12-27T08:06:55.296Z,102017.59
2022-12-27T08:09:26.048Z,102011.78
2022-12-27T08:11:52.645Z,102010.69
2022-12-27T08:14:19.261Z,102011.50
2022-12-27T08:16:46.085Z,102014.03
2022-12-27T08:19:12.769Z,102006.50
2022-12-27T08:21:39.439Z,102007.13
2022-12-27T08:24:06.199Z,102003.47
2022-12-27T08:26:32.873Z,102005.13
2022-12-27T08:28:59.530Z,102012.94
2022-12-27T08:31:26.205Z,102004.56
2022-12-27T08:33:58.275Z,102003.72
2022-12-27T08:39:12.279Z,102004.81
2022-12-27T08:41:39.387Z,102005.91
2022-12-27T08:44:06.649Z,102003.13
2022-12-27T08:46:33.330Z,102008.69
2022-12-27T08:48:59.973Z,102012.34
2022-12-27T08:51:35.860Z,102013.47
2022-12-27T08:54:07.358Z,102007.03
2022-12-27T08:56:33.972Z,102006.19
2022-12-27T08:59:00.608Z,102003.41
2022-12-27T09:01:27.512Z,101998.91
2022-12-27T09:03:54.207Z,101995.28
2022-12-27T09:06:22.023Z,101989.69
2022-12-27T09:08:49.395Z,101993.56
2022-12-27T09:11:17.801Z,102000.28
2022-12-27T09:13:44.616Z,101994.09
2022-12-27T09:16:15.723Z,102000.53
2022-12-27T09:18:43.197Z,102000.78
2022-12-27T09:21:11.589Z,101991.56
2022-12-27T09:23:38.917Z,101997.44
2022-12-27T09:26:16.459Z,101996.56
2022-12-27T09:28:43.136Z,101994.28
2022-12-27T09:31:11.158Z,101983.97
2022-12-27T09:33:38.077Z,101987.88
2022-12-27T09:36:15.228Z,101987.03
2022-12-27T09:38:44.229Z,101996.50
2022-12-27T09:42:11.756Z,101990.06
2022-12-27T09:44:06.726Z,101995.91
2022-12-27T09:46:55.268Z,101991.44
2022-12-27T09:49:33.702Z,101998.97
2022-12-27T09:52:07.363Z,101996.69
2022-12-27T09:54:51.419Z,101993.03
2022-12-27T09:57:22.151Z,101997.81
2022-12-27T09:59:54.341Z,101987.75
2022-12-27T10:02:24.966Z,101986.03
2022-12-27T10:05:19.226Z,101978.75
2022-12-27T10:07:47.967Z,101979.03
2022-12-27T10:10:38.740Z,101988.50
2022-12-27T10:13:26.949Z,101985.13
2022-12-27T10:16:12.736Z,101978.69
2022-12-27T10:18:48.030Z,101968.66
2022-12-27T10:21:22.626Z,101961.38
2022-12-27T10:24:02.958Z,101967.81
2022-12-27T10:26:29.621Z,101957.75
2022-12-27T10:28:59.419Z,101962.47
2022-12-27T10:31:26.588Z,101954.09
2022-12-27T10:33:53.484Z,101949.63
2022-12-27T10:36:24.272Z,101942.34
2022-12-27T10:38:51.012Z,101926.72
2022-12-27T10:41:26.654Z,101921.16
2022-12-27T10:43:54.197Z,101923.09
2022-12-27T10:46:33.297Z,101928.06
2022-12-27T10:51:47.276Z,101927.47
2022-12-27T10:54:15.149Z,101924.69
2022-12-27T10:56:44.343Z,101912.91
2022-12-27T10:59:19.024Z,101907.34
2022-12-27T11:01:47.071Z,101904.00
2022-12-27T11:04:20.677Z,101902.28
2022-12-27T11:07:00.274Z,101897.81
2022-12-27T11:09:31.844Z,101884.09
2022-12-27T11:12:16.864Z,101887.19
2022-12-27T11:14:55.567Z,101888.03
2022-12-27T11:17:42.579Z,101881.00
2022-12-27T11:20:19.735Z,101869.28
2022-12-27T11:23:06.613Z,101862.84
2022-12-27T11:25:33.984Z,101866.72
2022-12-27T11:28:00.630Z,101865.88
2022-12-27T11:30:30.240Z,101848.56
2022-12-27T11:32:58.161Z,101854.41
2022-12-27T11:35:24.834Z,101850.53
2022-12-27T11:37:52.241Z,101853.31
2022-12-27T11:40:41.504Z,101839.63
2022-12-27T11:43:10.260Z,101845.44
2022-12-27T11:45:42.648Z,101836.22
2022-12-27T11:48:12.064Z,101835.38
2022-12-27T11:50:48.352Z,101834.56
2022-12-27T11:53:21.128Z,101822.81
2022-12-27T11:55:47.708Z,101824.50
2022-12-27T11:58:14.404Z,101819.78
2022-12-27T12:00:50.038Z,101815.28
2022-12-27T12:03:34.628Z,101824.50
2022-12-27T12:06:16.006Z,101808.03
2022-12-27T12:08:50.863Z,101806.34
2022-12-27T12:11:20.249Z,101804.66
2022-12-27T12:13:55.564Z,101798.25
2022-12-27T12:16:31.261Z,101798.50
2022-12-27T12:18:59.855Z,101782.84
2022-12-27T12:21:56.048Z,101777.28
2022-12-27T12:24:43.501Z,101768.06
2022-12-27T12:27:10.095Z,101758.06
2022-12-27T12:29:55.274Z,101757.44
2022-12-27T12:32:21.906Z,101751.88
2022-12-27T12:35:04.736Z,101735.16
2022-12-27T12:37:51.636Z,101728.97
2022-12-27T12:40:39.921Z,101728.16
2022-12-27T12:43:25.180Z,101724.53
2022-12-27T12:45:57.667Z,101723.69
2022-12-27T12:48:30.607Z,101709.16
2022-12-27T12:51:06.274Z,101707.19
2022-12-27T12:53:38.775Z,101701.06
2022-12-27T12:56:23.936Z,101702.72
2022-12-27T12:59:13.931Z,101693.78
2022-12-27T13:01:59.636Z,101693.78
2022-12-27T13:04:55.791Z,101677.31
2022-12-27T13:07:40.674Z,101667.25
2022-12-27T13:10:10.144Z,101660.84
2022-12-27T13:12:53.075Z,101657.25
2022-12-27T13:15:28.713Z,101649.97
2022-12-27T13:18:01.425Z,101639.94
2022-12-27T13:20:47.512Z,101638.22
2022-12-27T13:23:33.056Z,101638.22
2022-12-27T13:26:05.540Z,101624.84
2022-12-27T13:28:43.299Z,101621.19
2022-12-27T13:31:33.674Z,101622.28
2022-12-27T13:34:26.794Z,101610.31
2022-12-27T13:37:05.669Z,101606.66
2022-12-27T13:39:44.256Z,101600.28
2022-12-27T13:42:19.708Z,101598.59
2022-12-27T13:45:07.591Z,101587.44
2022-12-27T13:47:48.600Z,101589.63
2022-12-27T13:50:43.690Z,101580.44
2022-12-27T13:53:29.379Z,101584.34
2022-12-27T13:56:20.615Z,101592.97
2022-12-27T13:59:13.451Z,101587.63
2022-12-27T14:02:01.206Z,101581.22
2022-12-27T14:04:33.932Z,101575.94
2022-12-27T14:07:16.001Z,101578.72
2022-12-27T14:09:42.581Z,101575.94
2022-12-27T14:12:24.338Z,101563.09
2022-12-27T14:14:51.636Z,101565.03
2022-12-27T14:17:30.379Z,101553.88
2022-12-27T14:20:15.517Z,101552.19
2022-12-27T14:22:42.091Z,101545.78
2022-12-27T14:25:25.766Z,101550.50
2022-12-27T14:28:10.175Z,101543.28
2022-12-27T14:30:55.783Z,101553.59
2022-12-27T14:33:22.411Z,101545.47
2022-12-27T14:36:10.055Z,101552.72
2022-12-27T14:38:36.686Z,101544.63
2022-12-27T14:41:26.598Z,101543.78
2022-12-27T14:43:59.195Z,101541.28
2022-12-27T14:46:31.854Z,101534.03
2022-12-27T14:49:17.207Z,101529.28
2022-12-27T14:52:00.710Z,101519.00
2022-12-27T14:54:31.274Z,101517.31
2022-12-27T14:57:16.446Z,101524.56
2022-12-27T14:59:58.087Z,101510.88
2022-12-27T15:02:43.200Z,101506.41
2022-12-27T15:05:28.578Z,101517.84
2022-12-27T15:08:10.316Z,101505.56
2022-12-27T15:10:59.393Z,101503.06
2022-12-27T15:13:49.490Z,101490.22
2022-12-27T15:16:23.301Z,101498.59
2022-12-27T15:18:56.474Z,101494.72
2022-12-27T15:21:42.117Z,101489.38
2022-12-27T15:24:11.640Z,101486.00
2022-12-27T15:27:01.344Z,101488.78
2022-12-27T15:29:28.241Z,101477.66
2022-12-27T15:31:57.735Z,101485.19
2022-12-27T15:34:33.457Z,101475.16
2022-12-27T15:37:00.185Z,101475.41
2022-12-27T15:39:35.805Z,101471.78
2022-12-27T15:42:14.607Z,101481.22
2022-12-27T15:44:44.394Z,101480.41
2022-12-27T15:47:36.411Z,101476.78
2022-12-27T15:50:02.985Z,101482.59
2022-12-27T15:52:29.585Z,101500.16
2022-12-27T15:54:56.217Z,101497.38
2022-12-27T15:57:44.159Z,101486.50
2022-12-27T16:00:15.604Z,101478.41
2022-12-27T16:02:45.262Z,101479.22
2022-12-27T16:05:17.858Z,101463.66
2022-12-27T16:08:13.724Z,101465.31
2022-12-27T16:10:40.645Z,101462.50
2022-12-27T16:13:10.486Z,101455.53
2022-12-27T16:15:41.264Z,101459.16
2022-12-27T16:18:27.771Z,101448.03
2022-12-27T16:20:57.484Z,101451.06
2022-12-27T16:23:29.796Z,101449.13
2022-12-27T16:26:19.888Z,101438.25
2022-12-27T16:28:52.705Z,101434.34
2022-12-27T16:31:23.830Z,101434.34
2022-12-27T16:33:51.204Z,101423.50
2022-12-27T16:36:26.035Z,101418.75
2022-12-27T16:39:11.600Z,101425.44
2022-12-27T16:41:38.215Z,101419.03
2022-12-27T16:44:13.910Z,101415.41
2022-12-27T16:46:56.123Z,101415.66
2022-12-27T16:49:25.843Z,101416.50
2022-12-27T16:51:52.458Z,101412.03
2022-12-27T16:54:21.851Z,101404.81
2022-12-27T16:56:49.402Z,101391.69
2022-12-27T16:59:35.031Z,101386.13
2022-12-27T17:02:01.948Z,101386.13
2022-12-27T17:04:47.333Z,101383.34
2022-12-27T17:07:33.883Z,101378.88
2022-12-27T17:10:20.431Z,101393.66
2022-12-27T17:12:50.189Z,101386.41
2022-12-27T17:15:17.013Z,101386.66
2022-12-27T17:17:46.538Z,101389.44
2022-12-27T17:20:16.825Z,101378.31
2022-12-27T17:22:43.615Z,101386.66
2022-12-27T17:25:18.449Z,101391.38
2022-12-27T17:27:45.053Z,101386.94
2022-12-27T17:30:20.079Z,101378.59
2022-12-27T17:33:02.663Z,101369.38
2022-12-27T17:35:39.760Z,101365.47
2022-12-27T17:38:20.311Z,101352.69
2022-12-27T17:40:47.012Z,101352.94
2022-12-27T17:43:35.605Z,101353.78
2022-12-27T17:46:05.239Z,101350.16
2022-12-27T17:48:33.063Z,101352.09
2022-12-27T17:51:02.154Z,101352.94
2022-12-27T17:53:47.713Z,101340.13
2022-12-27T17:56:34.862Z,101336.44
2022-12-27T17:59:21.721Z,101334.53
2022-12-27T18:01:50.622Z,101325.31
2022-12-27T18:04:28.119Z,101330.03
2022-12-27T18:07:00.581Z,101326.44
2022-12-27T18:09:27.160Z,101321.97
2022-12-27T18:11:53.837Z,101328.38
2022-12-27T18:14:21.094Z,101322.81
2022-12-27T18:16:47.944Z,101312.78
2022-12-27T18:19:21.016Z,101313.88
2022-12-27T18:21:58.181Z,101308.31
2022-12-27T18:24:29.942Z,101296.06
2022-12-27T18:27:04.199Z,101309.47
2022-12-27T18:29:31.268Z,101288.88
2022-12-27T18:32:00.074Z,101287.78
2022-12-27T18:34:30.722Z,101284.72
2022-12-27T18:37:00.944Z,101283.06
2022-12-27T18:39:27.537Z,101285.91
2022-12-27T18:41:54.620Z,101289.56
2022-12-27T18:44:27.085Z,101282.09
2022-12-27T18:46:55.500Z,101277.41
2022-12-27T18:49:31.833Z,101271.88
2022-12-27T18:51:58.648Z,101271.88
2022-12-27T18:54:28.112Z,101259.13
2022-12-27T18:56:59.237Z,101250.19
2022-12-27T18:59:28.920Z,101234.63
2022-12-27T19:01:59.586Z,101230.44
2022-12-27T19:04:33.782Z,101226.84
2022-12-27T19:07:11.478Z,101228.25
2022-12-27T19:09:38.059Z,101219.34
2022-12-27T19:12:18.129Z,101215.19
2022-12-27T19:14:46.363Z,101211.84
2022-12-27T19:17:18.738Z,101214.38
2022-12-27T19:19:47.166Z,101209.34
2022-12-27T19:22:32.668Z,101197.09
2022-12-27T19:25:04.791Z,101194.03
2022-12-27T19:27:31.740Z,101184.28
2022-12-27T19:29:58.348Z,101180.38
2022-12-27T19:32:33.397Z,101181.22
2022-12-27T19:35:01.992Z,101181.75
2022-12-27T19:37:30.611Z,101176.78
2022-12-27T19:39:57.923Z,101160.03
2022-12-27T19:42:29.593Z,101160.03
2022-12-27T19:44:56.308Z,101158.09
2022-12-27T19:47:22.966Z,101147.78
2022-12-27T19:49:49.910Z,101145.84
2022-12-27T19:52:18.890Z,101127.13
2022-12-27T19:54:46.245Z,101121.53
2022-12-27T19:57:13.153Z,101108.44
2022-12-27T19:59:39.912Z,101102.59
2022-12-27T20:02:06.644Z,101091.44
2022-12-27T20:04:33.532Z,101085.63
2022-12-27T20:07:00.810Z,101080.88
2022-12-27T20:09:27.909Z,101076.09
2022-12-27T20:11:54.602Z,101078.91
2022-12-27T20:14:21.211Z,101082.53
2022-12-27T20:16:48.110Z,101086.16
2022-12-27T20:19:16.619Z,101060.22
2022-12-27T20:21:43.319Z,101071.38
2022-12-27T20:24:10.859Z,101082.53
2022-12-27T20:26:37.697Z,101061.34
2022-12-27T20:29:04.861Z,101058.56
2022-12-27T20:31:31.497Z,101066.94
2022-12-27T20:33:58.142Z,101049.63
2022-12-27T20:36:24.909Z,101048.78
2022-12-27T20:38:51.548Z,101024.81
2022-12-27T20:41:19.622Z,101022.84
2022-12-27T20:43:46.672Z,101032.91
2022-12-27T20:46:16.723Z,101014.50
2022-12-27T20:48:44.755Z,101023.97
2022-12-27T20:51:12.848Z,101022.84
2022-12-27T20:53:39.544Z,101012.00
2022-12-27T20:56:09.104Z,101002.81
2022-12-27T20:58:35.754Z,101005.84
2022-12-27T21:01:06.452Z,100990.22
2022-12-27T21:03:33.254Z,100987.19
2022-12-27T21:06:04.942Z,100973.50
2022-12-27T21:08:40.463Z,100969.88
2022-12-27T21:11:12.548Z,100959.88
2022-12-27T21:13:39.895Z,100952.63
2022-12-27T21:16:09.767Z,100962.09
2022-12-27T21:18:36.430Z,100943.69
2022-12-27T21:21:07.491Z,100956.50
2022-12-27T21:23:34.871Z,100955.94
2022-12-27T21:26:05.454Z,100958.72
2022-12-27T21:28:32.211Z,100938.09
2022-12-27T21:30:59.167Z,100943.69
2022-12-27T21:33:25.923Z,100928.38
2022-12-27T21:35:59.474Z,100933.63
2022-12-27T21:38:26.735Z,100930.31
2022-12-27T21:40:57.182Z,100913.84
2022-12-27T21:43:23.888Z,100907.44
2022-12-27T21:45:50.530Z,100902.69
2022-12-27T21:48:17.145Z,100915.78
2022-12-27T21:50:43.856Z,100903.50
2022-12-27T21:53:10.476Z,100902.97
2022-12-27T21:55:37.160Z,100890.13
2022-12-27T21:58:03.777Z,100889.53
2022-12-27T22:00:38.397Z,100892.31
2022-12-27T22:03:05.209Z,100886.47
2022-12-27T22:05:32.037Z,100869.97
2022-12-27T22:07:58.740Z,100868.56
2022-12-27T22:10:25.442Z,100877.22
2022-12-27T22:12:52.162Z,100880.53
2022-12-27T22:15:18.749Z,100861.56
2022-12-27T22:17:45.415Z,100869.63
2022-12-27T22:20:12.488Z,100853.72
2022-12-27T22:22:39.149Z,100862.09
2022-12-27T22:25:06.133Z,100863.50
2022-12-27T22:27:32.754Z,100842.00
2022-12-27T22:29:59.466Z,100834.16
2022-12-27T22:32:26.097Z,100835.28
2022-12-27T22:34:52.731Z,100833.34
2022-12-27T22:37:19.316Z,100825.81
2022-12-27T22:39:45.942Z,100819.09
2022-12-27T22:42:12.571Z,100825.53
2022-12-27T22:44:39.141Z,100813.25
2022-12-27T22:49:52.336Z,100796.50
2022-12-27T22:52:18.912Z,100799.28
2022-12-27T22:55:04.442Z,100797.31
2022-12-27T22:57:32.148Z,100804.03
2022-12-27T22:59:58.757Z,100781.72
2022-12-27T23:02:25.481Z,100788.94
2022-12-27T23:04:52.207Z,100782.53
2022-12-27T23:07:20.277Z,100784.19
2022-12-27T23:09:46.933Z,100781.41
2022-12-27T23:12:13.828Z,100788.13
2022-12-27T23:14:40.683Z,100777.78
2022-12-27T23:17:07.373Z,100763.81
2022-12-27T23:19:34.061Z,100761.03
2022-12-27T23:22:00.700Z,100761.03
2022-12-27T23:24:27.286Z,100764.66
2022-12-27T23:26:53.929Z,100755.44
2022-12-27T23:29:20.516Z,100753.81
2022-12-27T23:31:55.385Z,100748.22
2022-12-27T23:34:27.758Z,100763.28
2022-12-27T23:36:55.149Z,100754.06
2022-12-27T23:39:21.895Z,100753.25
2022-12-27T23:41:48.493Z,100754.34
2022-12-27T23:44:16.106Z,100747.94
2022-12-27T23:46:45.300Z,100738.75
2022-12-27T23:49:12.013Z,100735.13
2022-12-27T23:51:38.663Z,100727.03
2022-12-27T23:54:05.373Z,100725.38
2022-12-27T23:56:32.696Z,100733.75
2022-12-27T23:59:00.170Z,100719.25
